createdAt,value
2017-08-17T00:00:20.418Z,0.00
2017-08-17T00:01:20.492Z,0.00
2017-08-17T00:02:20.396Z,0.00
2017-08-17T00:03:20.491Z,0.00
2017-08-17T00:04:20.401Z,0.00
2017-08-17T00:05:20.403Z,0.00
2017-08-17T00:06:20.401Z,0.00
2017-08-17T00:07:20.494Z,0.00
2017-08-17T00:08:20.497Z,0.00
2017-08-17T00:09:20.409Z,0.00
2017-08-17T00:10:20.501Z,0.00
2017-08-17T00:11:20.405Z,0.00
2017-08-17T00:12:20.473Z,0.00
2017-08-17T00:13:20.443Z,0.00
2017-08-17T00:14:20.439Z,0.00
2017-08-17T00:15:20.436Z,0.00
2017-08-17T00:16:20.459Z,0.00
2017-08-17T00:17:20.457Z,0.00
2017-08-17T00:18:20.437Z,0.00
2017-08-17T00:19:20.497Z,0.00
2017-08-17T00:20:20.501Z,0.00
2017-08-17T00:21:20.443Z,0.00
2017-08-17T00:22:20.498Z,0.00
2017-08-17T00:23:20.441Z,0.00
2017-08-17T00:24:20.437Z,0.00
2017-08-17T00:25:20.411Z,0.00
2017-08-17T00:26:20.470Z,0.00
2017-08-17T00:27:20.408Z,0.00
2017-08-17T00:28:20.465Z,0.00
2017-08-17T00:29:20.438Z,0.00
2017-08-17T00:30:20.471Z,0.00
2017-08-17T00:31:20.434Z,0.00
2017-08-17T00:32:20.470Z,0.00
2017-08-17T00:33:20.478Z,0.00
2017-08-17T00:34:20.439Z,0.00
2017-08-17T00:35:20.470Z,0.00
2017-08-17T00:36:20.416Z,0.00
2017-08-17T00:37:20.472Z,0.00
2017-08-17T00:38:20.417Z,0.00
2017-08-17T00:39:20.493Z,0.00
2017-08-17T00:40:20.421Z,0.00
2017-08-17T00:41:20.454Z,0.00
2017-08-17T00:42:20.474Z,0.00
2017-08-17T00:43:20.423Z,0.00
2017-08-17T00:44:20.430Z,0.00
2017-08-17T00:45:20.455Z,0.00
2017-08-17T00:46:20.480Z,0.00
2017-08-17T00:47:20.419Z,0.00
2017-08-17T00:48:20.485Z,0.00
2017-08-17T00:49:20.484Z,0.00
2017-08-17T00:50:20.503Z,0.00
2017-08-17T00:51:20.485Z,0.00
2017-08-17T00:52:20.481Z,0.00
2017-08-17T00:53:20.453Z,0.00
2017-08-17T00:54:20.425Z,0.00
2017-08-17T00:55:20.429Z,0.00
2017-08-17T00:56:20.520Z,0.00
2017-08-17T00:57:20.435Z,0.00
2017-08-17T00:58:20.462Z,0.00
2017-08-17T00:59:20.469Z,0.00
2017-08-17T01:00:20.430Z,0.00
2017-08-17T01:01:20.437Z,0.00
2017-08-17T01:02:20.457Z,0.00
2017-08-17T01:03:20.522Z,0.00
2017-08-17T01:04:20.529Z,0.00
2017-08-17T01:05:20.435Z,0.00
2017-08-17T01:06:20.537Z,0.00
2017-08-17T01:07:20.535Z,0.00
2017-08-17T01:08:20.528Z,0.00
2017-08-17T01:09:20.488Z,0.00
2017-08-17T01:10:20.509Z,0.00
2017-08-17T01:11:20.447Z,0.00
2017-08-17T01:12:20.509Z,0.00
2017-08-17T01:13:20.507Z,0.00
2017-08-17T01:14:20.467Z,0.00
2017-08-17T01:15:20.436Z,0.00
2017-08-17T01:16:20.495Z,0.00
2017-08-17T01:17:20.500Z,0.00
2017-08-17T01:18:20.434Z,0.00
2017-08-17T01:19:20.439Z,0.00
2017-08-17T01:20:20.440Z,0.00
2017-08-17T01:21:20.460Z,0.00
2017-08-17T01:22:20.497Z,0.00
2017-08-17T01:23:20.468Z,0.00
2017-08-17T01:24:20.440Z,0.00
2017-08-17T01:25:20.457Z,0.00
2017-08-17T01:26:20.447Z,0.00
2017-08-17T01:27:20.537Z,0.00
2017-08-17T01:28:20.512Z,0.00
2017-08-17T01:29:20.475Z,0.00
2017-08-17T01:30:20.547Z,0.00
2017-08-17T01:31:20.453Z,0.00
2017-08-17T01:32:20.454Z,0.00
2017-08-17T01:33:20.475Z,0.00
2017-08-17T01:34:20.455Z,0.00
2017-08-17T01:35:20.487Z,0.00
2017-08-17T01:36:20.513Z,0.00
2017-08-17T01:37:20.504Z,0.00
2017-08-17T01:38:20.491Z,0.00
2017-08-17T01:39:20.526Z,0.00
2017-08-17T01:40:20.462Z,0.00
2017-08-17T01:41:20.454Z,0.00
2017-08-17T01:42:20.456Z,0.00
2017-08-17T01:43:20.494Z,0.00
2017-08-17T01:44:20.490Z,0.00
2017-08-17T01:45:20.528Z,0.00
2017-08-17T01:46:20.510Z,0.00
2017-08-17T01:47:20.492Z,0.00
2017-08-17T01:48:20.497Z,0.00
2017-08-17T01:49:20.490Z,0.00
2017-08-17T01:50:20.496Z,0.00
2017-08-17T01:51:20.569Z,0.00
2017-08-17T01:52:20.567Z,0.00
2017-08-17T01:53:20.561Z,0.00
2017-08-17T01:54:20.499Z,0.00
2017-08-17T01:55:20.532Z,0.00
2017-08-17T01:56:20.557Z,0.00
2017-08-17T01:57:20.562Z,0.00
2017-08-17T01:58:20.501Z,0.00
2017-08-17T01:59:20.473Z,0.00
2017-08-17T02:00:20.495Z,0.00
2017-08-17T02:01:20.532Z,0.00
2017-08-17T02:02:20.577Z,0.00
2017-08-17T02:03:20.533Z,0.00
2017-08-17T02:04:20.497Z,0.00
2017-08-17T02:05:20.506Z,0.00
2017-08-17T02:06:20.542Z,0.00
2017-08-17T02:07:20.473Z,0.00
2017-08-17T02:08:20.524Z,0.00
2017-08-17T02:09:20.573Z,0.00
2017-08-17T02:10:20.529Z,0.00
2017-08-17T02:11:20.506Z,0.00
2017-08-17T02:12:20.481Z,0.00
2017-08-17T02:13:20.548Z,0.00
2017-08-17T02:14:20.486Z,0.00
2017-08-17T02:15:20.546Z,0.00
2017-08-17T02:16:20.505Z,0.00
2017-08-17T02:17:20.578Z,0.00
2017-08-17T02:18:20.488Z,0.00
2017-08-17T02:19:20.570Z,0.00
2017-08-17T02:20:20.487Z,0.00
2017-08-17T02:21:20.491Z,0.00
2017-08-17T02:22:20.485Z,0.00
2017-08-17T02:23:20.546Z,0.00
2017-08-17T02:24:20.521Z,0.00
2017-08-17T02:25:20.539Z,0.00
2017-08-17T02:26:20.509Z,0.00
2017-08-17T02:27:20.487Z,0.00
2017-08-17T02:28:20.583Z,0.00
2017-08-17T02:29:20.548Z,0.00
2017-08-17T02:30:20.542Z,0.00
2017-08-17T02:31:20.521Z,0.00
2017-08-17T02:32:20.560Z,0.00
2017-08-17T02:33:20.556Z,0.00
2017-08-17T02:34:20.595Z,0.00
2017-08-17T02:35:20.584Z,0.00
2017-08-17T02:36:20.515Z,0.00
2017-08-17T02:37:20.493Z,0.00
2017-08-17T02:38:20.579Z,0.00
2017-08-17T02:39:20.496Z,0.00
2017-08-17T02:40:20.593Z,0.00
2017-08-17T02:41:20.493Z,0.00
2017-08-17T02:42:20.495Z,0.00
2017-08-17T02:43:20.528Z,0.00
2017-08-17T02:44:20.519Z,0.00
2017-08-17T02:45:20.548Z,0.00
2017-08-17T02:46:20.547Z,0.00
2017-08-17T02:47:20.534Z,0.00
2017-08-17T02:48:20.499Z,0.00
2017-08-17T02:49:24.881Z,0.00
2017-08-17T02:50:20.524Z,0.00
2017-08-17T02:51:20.599Z,0.00
2017-08-17T02:52:20.499Z,0.00
2017-08-17T02:53:20.603Z,0.00
2017-08-17T02:54:20.555Z,0.00
2017-08-17T02:55:20.589Z,0.00
2017-08-17T02:56:20.569Z,0.00
2017-08-17T02:57:20.555Z,0.00
2017-08-17T02:58:20.534Z,0.00
2017-08-17T02:59:20.513Z,0.00
2017-08-17T03:00:20.596Z,0.00
2017-08-17T03:01:20.535Z,0.00
2017-08-17T03:02:20.527Z,0.00
2017-08-17T03:03:20.604Z,0.00
2017-08-17T03:04:20.536Z,0.00
2017-08-17T03:05:20.576Z,0.00
2017-08-17T03:06:20.532Z,0.00
2017-08-17T03:07:20.573Z,0.00
2017-08-17T03:08:20.533Z,0.00
2017-08-17T03:09:20.567Z,0.00
2017-08-17T03:10:20.600Z,0.00
2017-08-17T03:11:20.601Z,0.00
2017-08-17T03:12:20.548Z,0.00
2017-08-17T03:13:20.598Z,0.00
2017-08-17T03:14:20.610Z,0.00
2017-08-17T03:15:20.535Z,0.00
2017-08-17T03:16:20.615Z,0.00
2017-08-17T03:17:20.515Z,0.00
2017-08-17T03:18:20.514Z,0.00
2017-08-17T03:19:20.572Z,0.00
2017-08-17T03:20:20.552Z,0.00
2017-08-17T03:21:20.612Z,0.00
2017-08-17T03:22:20.548Z,0.00
2017-08-17T03:23:20.541Z,0.00
2017-08-17T03:24:20.552Z,0.00
2017-08-17T03:25:20.595Z,0.00
2017-08-17T03:26:20.556Z,0.00
2017-08-17T03:27:20.546Z,0.00
2017-08-17T03:28:20.625Z,0.00
2017-08-17T03:29:20.594Z,0.00
2017-08-17T03:30:20.619Z,0.00
2017-08-17T03:31:20.560Z,0.00
2017-08-17T03:32:20.551Z,0.00
2017-08-17T03:33:20.577Z,0.00
2017-08-17T03:34:20.590Z,0.00
2017-08-17T03:35:20.616Z,0.00
2017-08-17T03:36:20.547Z,0.00
2017-08-17T03:37:20.549Z,0.00
2017-08-17T03:38:20.586Z,0.00
2017-08-17T03:39:20.548Z,0.00
2017-08-17T03:40:20.522Z,0.00
2017-08-17T03:41:20.551Z,0.00
2017-08-17T03:42:20.523Z,0.00
2017-08-17T03:43:20.548Z,0.00
2017-08-17T03:44:20.554Z,0.00
2017-08-17T03:45:20.555Z,0.00
2017-08-17T03:46:20.597Z,0.00
2017-08-17T03:47:20.632Z,0.00
2017-08-17T03:48:20.586Z,0.00
2017-08-17T03:49:20.531Z,0.00
2017-08-17T03:50:20.588Z,0.00
2017-08-17T03:51:20.537Z,0.00
2017-08-17T03:52:20.570Z,0.00
2017-08-17T03:53:20.612Z,0.00
2017-08-17T03:54:20.563Z,0.00
2017-08-17T03:55:20.589Z,0.00
2017-08-17T03:56:20.561Z,0.00
2017-08-17T03:57:20.535Z,0.00
2017-08-17T03:58:20.561Z,0.00
2017-08-17T03:59:20.561Z,0.00
2017-08-17T04:00:20.562Z,0.00
2017-08-17T04:01:20.567Z,0.00
2017-08-17T04:02:20.598Z,0.00
2017-08-17T04:03:20.594Z,0.00
2017-08-17T04:04:20.537Z,0.00
2017-08-17T04:05:20.566Z,0.00
2017-08-17T04:06:20.615Z,0.00
2017-08-17T04:07:20.554Z,0.00
2017-08-17T04:08:20.644Z,0.00
2017-08-17T04:09:20.601Z,0.00
2017-08-17T04:10:20.619Z,0.00
2017-08-17T04:11:20.579Z,0.00
2017-08-17T04:12:20.604Z,0.00
2017-08-17T04:13:20.544Z,0.00
2017-08-17T04:14:20.643Z,0.00
2017-08-17T04:15:20.603Z,0.00
2017-08-17T04:16:20.577Z,0.00
2017-08-17T04:17:20.586Z,0.00
2017-08-17T04:18:20.613Z,0.00
2017-08-17T04:19:20.585Z,0.00
2017-08-17T04:20:20.559Z,0.00
2017-08-17T04:21:20.570Z,0.00
2017-08-17T04:22:20.646Z,0.00
2017-08-17T04:23:20.590Z,0.00
2017-08-17T04:24:20.583Z,0.00
2017-08-17T04:25:20.652Z,0.00
2017-08-17T04:26:20.558Z,0.00
2017-08-17T04:27:20.549Z,0.00
2017-08-17T04:28:20.614Z,0.00
2017-08-17T04:29:20.570Z,0.00
2017-08-17T04:30:20.617Z,0.00
2017-08-17T04:31:20.613Z,1.00
2017-08-17T04:32:20.555Z,1.00
2017-08-17T04:33:20.622Z,1.00
2017-08-17T04:34:20.581Z,1.00
2017-08-17T04:35:20.552Z,1.00
2017-08-17T04:36:20.564Z,1.00
2017-08-17T04:37:20.626Z,1.00
2017-08-17T04:38:20.592Z,1.00
2017-08-17T04:39:20.560Z,1.00
2017-08-17T04:40:20.563Z,1.00
2017-08-17T04:41:20.594Z,1.00
2017-08-17T04:42:20.569Z,1.00
2017-08-17T04:43:20.567Z,1.00
2017-08-17T04:44:20.598Z,1.00
2017-08-17T04:45:20.606Z,1.00
2017-08-17T04:46:20.591Z,2.00
2017-08-17T04:47:20.624Z,2.00
2017-08-17T04:48:20.625Z,2.00
2017-08-17T04:49:20.607Z,2.00
2017-08-17T04:50:20.593Z,2.00
2017-08-17T04:51:20.588Z,2.00
2017-08-17T04:52:20.561Z,2.00
2017-08-17T04:53:20.592Z,2.00
2017-08-17T04:54:20.593Z,2.00
2017-08-17T04:55:20.566Z,2.00
2017-08-17T04:56:20.670Z,2.00
2017-08-17T04:57:20.667Z,3.00
2017-08-17T04:58:20.595Z,3.00
2017-08-17T04:59:20.604Z,3.00
2017-08-17T05:00:20.629Z,3.00
2017-08-17T05:01:20.626Z,3.00
2017-08-17T05:02:20.604Z,3.00
2017-08-17T05:03:20.636Z,4.00
2017-08-17T05:04:20.677Z,4.00
2017-08-17T05:05:20.663Z,4.00
2017-08-17T05:06:20.655Z,4.00
2017-08-17T05:07:20.628Z,4.00
2017-08-17T05:08:20.573Z,5.00
2017-08-17T05:09:20.602Z,5.00
2017-08-17T05:10:20.598Z,6.00
2017-08-17T05:11:20.631Z,6.00
2017-08-17T05:12:20.597Z,5.00
2017-08-17T05:13:20.635Z,6.00
2017-08-17T05:14:20.693Z,6.00
2017-08-17T05:15:20.576Z,7.00
2017-08-17T05:16:20.605Z,7.00
2017-08-17T05:17:20.576Z,8.00
2017-08-17T05:18:20.576Z,8.00
2017-08-17T05:19:20.574Z,8.00
2017-08-17T05:20:20.607Z,8.00
2017-08-17T05:21:20.581Z,8.00
2017-08-17T05:22:20.636Z,8.00
2017-08-17T05:23:20.654Z,7.00
2017-08-17T05:24:20.640Z,7.00
2017-08-17T05:25:20.607Z,6.00
2017-08-17T05:26:20.648Z,6.00
2017-08-17T05:27:20.583Z,5.00
2017-08-17T05:28:20.555Z,5.00
2017-08-17T05:29:20.607Z,5.00
2017-08-17T05:30:20.615Z,5.00
2017-08-17T05:31:20.568Z,5.00
2017-08-17T05:32:20.598Z,4.00
2017-08-17T05:33:20.616Z,4.00
2017-08-17T05:34:20.620Z,4.00
2017-08-17T05:35:20.561Z,4.00
2017-08-17T05:36:20.566Z,4.00
2017-08-17T05:37:20.599Z,6.00
2017-08-17T05:38:20.629Z,5.00
2017-08-17T05:39:20.600Z,5.00
2017-08-17T05:40:20.625Z,5.00
2017-08-17T05:41:20.681Z,5.00
2017-08-17T05:42:20.604Z,5.00
2017-08-17T05:43:20.689Z,7.00
2017-08-17T05:44:20.603Z,6.00
2017-08-17T05:45:20.633Z,6.00
2017-08-17T05:46:20.637Z,5.00
2017-08-17T05:47:20.699Z,7.00
2017-08-17T05:48:20.665Z,7.00
2017-08-17T05:49:20.605Z,6.00
2017-08-17T05:50:20.728Z,6.00
2017-08-17T05:51:20.636Z,10.00
2017-08-17T05:52:20.631Z,11.00
2017-08-17T05:53:20.641Z,10.00
2017-08-17T05:54:20.696Z,8.00
2017-08-17T05:55:20.660Z,13.00
2017-08-17T05:56:20.631Z,14.00
2017-08-17T05:57:20.663Z,15.00
2017-08-17T05:58:20.599Z,15.00
2017-08-17T05:59:20.625Z,10.00
2017-08-17T06:00:20.670Z,18.00
2017-08-17T06:01:20.662Z,18.00
2017-08-17T06:02:20.666Z,19.00
2017-08-17T06:03:20.664Z,20.00
2017-08-17T06:04:20.631Z,20.00
2017-08-17T06:05:20.663Z,20.00
2017-08-17T06:06:20.667Z,19.00
2017-08-17T06:07:20.626Z,18.00
2017-08-17T06:08:20.628Z,18.00
2017-08-17T06:09:20.595Z,19.00
2017-08-17T06:10:20.609Z,18.00
2017-08-17T06:11:20.627Z,19.00
2017-08-17T06:12:20.608Z,19.00
2017-08-17T06:13:20.604Z,20.00
2017-08-17T06:14:20.601Z,20.00
2017-08-17T06:15:20.625Z,20.00
2017-08-17T06:16:20.623Z,20.00
2017-08-17T06:17:20.674Z,20.00
2017-08-17T06:18:20.673Z,20.00
2017-08-17T06:19:20.639Z,19.00
2017-08-17T06:20:20.612Z,18.00
2017-08-17T06:21:20.641Z,19.00
2017-08-17T06:22:20.615Z,20.00
2017-08-17T06:23:20.678Z,21.00
2017-08-17T06:24:20.677Z,20.00
2017-08-17T06:25:20.614Z,21.00
2017-08-17T06:26:20.648Z,21.00
2017-08-17T06:27:20.697Z,22.00
2017-08-17T06:28:20.661Z,24.00
2017-08-17T06:29:20.627Z,24.00
2017-08-17T06:30:20.677Z,23.00
2017-08-17T06:31:20.680Z,22.00
2017-08-17T06:32:20.703Z,22.00
2017-08-17T06:33:20.723Z,23.00
2017-08-17T06:34:20.666Z,24.00
2017-08-17T06:35:20.717Z,25.00
2017-08-17T06:36:20.695Z,26.00
2017-08-17T06:37:20.684Z,26.00
2017-08-17T06:38:20.653Z,27.00
2017-08-17T06:39:20.690Z,26.00
2017-08-17T06:40:20.657Z,23.00
2017-08-17T06:41:20.621Z,24.00
2017-08-17T06:42:20.658Z,25.00
2017-08-17T06:43:20.663Z,26.00
2017-08-17T06:44:20.666Z,26.00
2017-08-17T06:45:20.689Z,26.00
2017-08-17T06:46:20.631Z,26.00
2017-08-17T06:47:20.616Z,27.00
2017-08-17T06:48:20.697Z,27.00
2017-08-17T06:49:20.633Z,28.00
2017-08-17T06:50:20.616Z,26.00
2017-08-17T06:51:20.655Z,24.00
2017-08-17T06:52:20.647Z,27.00
2017-08-17T06:53:20.660Z,27.00
2017-08-17T06:54:20.636Z,28.00
2017-08-17T06:55:20.611Z,27.00
2017-08-17T06:56:20.636Z,28.00
2017-08-17T06:57:20.704Z,28.00
2017-08-17T06:58:20.673Z,28.00
2017-08-17T06:59:20.705Z,29.00
2017-08-17T07:00:20.678Z,30.00
2017-08-17T07:01:20.712Z,31.00
2017-08-17T07:02:20.698Z,30.00
2017-08-17T07:03:20.699Z,30.00
2017-08-17T07:04:20.737Z,30.00
2017-08-17T07:05:20.677Z,31.00
2017-08-17T07:06:20.651Z,31.00
2017-08-17T07:07:20.670Z,29.00
2017-08-17T07:08:20.618Z,30.00
2017-08-17T07:09:20.598Z,27.00
2017-08-17T07:10:20.656Z,29.00
2017-08-17T07:11:20.660Z,28.00
2017-08-17T07:12:20.748Z,31.00
2017-08-17T07:13:20.645Z,31.00
2017-08-17T07:14:20.600Z,31.00
2017-08-17T07:15:20.648Z,31.00
2017-08-17T07:16:20.668Z,31.00
2017-08-17T07:17:20.664Z,32.00
2017-08-17T07:18:20.621Z,32.00
2017-08-17T07:19:20.625Z,32.00
2017-08-17T07:20:20.721Z,32.00
2017-08-17T07:21:20.648Z,32.00
2017-08-17T07:22:20.703Z,32.00
2017-08-17T07:23:20.627Z,33.00
2017-08-17T07:24:20.635Z,32.00
2017-08-17T07:25:20.652Z,31.00
2017-08-17T07:26:20.653Z,31.00
2017-08-17T07:27:20.686Z,32.00
2017-08-17T07:28:20.719Z,33.00
2017-08-17T07:29:20.722Z,33.00
2017-08-17T07:30:20.714Z,29.00
2017-08-17T07:31:20.716Z,28.00
2017-08-17T07:32:20.721Z,28.00
2017-08-17T07:33:20.726Z,35.00
2017-08-17T07:34:20.689Z,28.00
2017-08-17T07:35:20.692Z,29.00
2017-08-17T07:36:20.697Z,28.00
2017-08-17T07:37:20.631Z,29.00
2017-08-17T07:38:20.634Z,30.00
2017-08-17T07:39:20.670Z,31.00
2017-08-17T07:40:20.688Z,27.00
2017-08-17T07:41:20.663Z,26.00
2017-08-17T07:42:20.676Z,29.00
2017-08-17T07:43:20.694Z,25.00
2017-08-17T07:44:20.675Z,25.00
2017-08-17T07:45:20.687Z,28.00
2017-08-17T07:46:20.812Z,30.00
2017-08-17T07:47:20.722Z,31.00
2017-08-17T07:48:20.694Z,31.00
2017-08-17T07:49:20.695Z,30.00
2017-08-17T07:50:20.694Z,31.00
2017-08-17T07:51:20.731Z,31.00
2017-08-17T07:52:20.665Z,32.00
2017-08-17T07:53:20.726Z,31.00
2017-08-17T07:54:20.726Z,30.00
2017-08-17T07:55:20.667Z,30.00
2017-08-17T07:56:20.727Z,31.00
2017-08-17T07:57:20.671Z,32.00
2017-08-17T07:58:20.698Z,31.00
2017-08-17T07:59:20.665Z,31.00
2017-08-17T08:00:20.733Z,32.00
2017-08-17T08:01:20.701Z,31.00
2017-08-17T08:02:20.729Z,31.00
2017-08-17T08:03:20.677Z,29.00
2017-08-17T08:04:20.667Z,29.00
2017-08-17T08:05:20.738Z,29.00
2017-08-17T08:06:20.707Z,29.00
2017-08-17T08:07:20.736Z,29.00
2017-08-17T08:08:20.704Z,29.00
2017-08-17T08:09:20.736Z,30.00
2017-08-17T08:10:20.703Z,32.00
2017-08-17T08:11:20.673Z,32.00
2017-08-17T08:12:20.674Z,31.00
2017-08-17T08:13:20.742Z,34.00
2017-08-17T08:14:20.708Z,34.00
2017-08-17T08:15:20.708Z,35.00
2017-08-17T08:16:20.704Z,34.00
2017-08-17T08:17:20.715Z,32.00
2017-08-17T08:18:20.692Z,33.00
2017-08-17T08:19:20.784Z,36.00
2017-08-17T08:20:20.748Z,36.00
2017-08-17T08:21:20.728Z,36.00
2017-08-17T08:22:20.766Z,36.00
2017-08-17T08:23:20.697Z,35.00
2017-08-17T08:24:20.718Z,37.00
2017-08-17T08:25:20.752Z,37.00
2017-08-17T08:26:20.746Z,40.00
2017-08-17T08:27:20.693Z,39.00
2017-08-17T08:28:20.723Z,42.00
2017-08-17T08:29:20.697Z,42.00
2017-08-17T08:30:20.759Z,38.00
2017-08-17T08:31:20.757Z,35.00
2017-08-17T08:32:20.696Z,35.00
2017-08-17T08:33:20.732Z,35.00
2017-08-17T08:34:20.701Z,35.00
2017-08-17T08:35:20.770Z,36.00
2017-08-17T08:36:20.760Z,36.00
2017-08-17T08:37:20.716Z,36.00
2017-08-17T08:38:20.785Z,39.00
2017-08-17T08:39:20.771Z,41.00
2017-08-17T08:40:20.794Z,41.00
2017-08-17T08:41:20.793Z,35.00
2017-08-17T08:42:20.793Z,30.00
2017-08-17T08:43:20.723Z,28.00
2017-08-17T08:44:20.702Z,27.00
2017-08-17T08:45:20.758Z,24.00
2017-08-17T08:46:20.777Z,24.00
2017-08-17T08:47:20.695Z,24.00
2017-08-17T08:48:20.755Z,24.00
2017-08-17T08:49:20.726Z,24.00
2017-08-17T08:50:20.731Z,25.00
2017-08-17T08:51:20.734Z,37.00
2017-08-17T08:52:20.697Z,25.00
2017-08-17T08:53:20.702Z,28.00
2017-08-17T08:54:20.729Z,30.00
2017-08-17T08:55:20.727Z,34.00
2017-08-17T08:56:20.728Z,41.00
2017-08-17T08:57:20.735Z,40.00
2017-08-17T08:58:20.741Z,44.00
2017-08-17T08:59:20.744Z,45.00
2017-08-17T09:00:20.705Z,42.00
2017-08-17T09:01:20.736Z,49.00
2017-08-17T09:02:20.742Z,49.00
2017-08-17T09:03:20.706Z,45.00
2017-08-17T09:04:20.741Z,53.00
2017-08-17T09:05:20.724Z,45.00
2017-08-17T09:06:20.703Z,45.00
2017-08-17T09:07:20.736Z,55.00
2017-08-17T09:08:20.737Z,51.00
2017-08-17T09:09:20.768Z,46.00
2017-08-17T09:10:20.708Z,42.00
2017-08-17T09:11:20.770Z,43.00
2017-08-17T09:12:20.778Z,39.00
2017-08-17T09:13:20.710Z,43.00
2017-08-17T09:14:20.777Z,55.00
2017-08-17T09:15:20.736Z,54.00
2017-08-17T09:16:20.713Z,48.00
2017-08-17T09:17:20.745Z,50.00
2017-08-17T09:18:20.746Z,54.00
2017-08-17T09:19:20.711Z,49.00
2017-08-17T09:20:20.742Z,50.00
2017-08-17T09:21:20.775Z,46.00
2017-08-17T09:22:20.774Z,46.00
2017-08-17T09:23:20.755Z,43.00
2017-08-17T09:24:20.719Z,37.00
2017-08-17T09:25:20.778Z,34.00
2017-08-17T09:26:20.718Z,35.00
2017-08-17T09:27:20.781Z,34.00
2017-08-17T09:28:20.866Z,32.00
2017-08-17T09:29:20.771Z,33.00
2017-08-17T09:30:20.789Z,35.00
2017-08-17T09:31:20.729Z,35.00
2017-08-17T09:32:20.840Z,34.00
2017-08-17T09:33:20.762Z,34.00
2017-08-17T09:34:20.819Z,35.00
2017-08-17T09:35:20.757Z,34.00
2017-08-17T09:36:20.824Z,36.00
2017-08-17T09:37:20.829Z,35.00
2017-08-17T09:38:20.722Z,34.00
2017-08-17T09:39:20.764Z,35.00
2017-08-17T09:40:20.755Z,36.00
2017-08-17T09:41:20.792Z,34.00
2017-08-17T09:42:20.792Z,32.00
2017-08-17T09:43:20.756Z,32.00
2017-08-17T09:44:20.796Z,35.00
2017-08-17T09:45:20.837Z,33.00
2017-08-17T09:46:20.799Z,31.00
2017-08-17T09:47:20.793Z,35.00
2017-08-17T09:48:20.749Z,37.00
2017-08-17T09:49:20.712Z,38.00
2017-08-17T09:50:20.749Z,37.00
2017-08-17T09:51:20.755Z,39.00
2017-08-17T09:52:20.733Z,38.00
2017-08-17T09:53:20.775Z,35.00
2017-08-17T09:54:20.739Z,33.00
2017-08-17T09:55:20.720Z,32.00
2017-08-17T09:56:20.765Z,31.00
2017-08-17T09:57:20.771Z,31.00
2017-08-17T09:58:20.737Z,31.00
2017-08-17T09:59:20.801Z,31.00
2017-08-17T10:00:20.742Z,32.00
2017-08-17T10:01:20.769Z,32.00
2017-08-17T10:02:20.776Z,31.00
2017-08-17T10:03:20.741Z,31.00
2017-08-17T10:04:20.748Z,32.00
2017-08-17T10:05:20.748Z,32.00
2017-08-17T10:06:20.778Z,33.00
2017-08-17T10:07:20.748Z,36.00
2017-08-17T10:08:20.766Z,34.00
2017-08-17T10:09:20.728Z,34.00
2017-08-17T10:10:20.898Z,33.00
2017-08-17T10:11:20.773Z,32.00
2017-08-17T10:12:20.724Z,31.00
2017-08-17T10:13:20.770Z,31.00
2017-08-17T10:14:20.775Z,31.00
2017-08-17T10:15:20.732Z,31.00
2017-08-17T10:16:20.753Z,31.00
2017-08-17T10:17:20.786Z,32.00
2017-08-17T10:18:20.813Z,32.00
2017-08-17T10:19:20.831Z,33.00
2017-08-17T10:20:20.853Z,34.00
2017-08-17T10:21:20.849Z,34.00
2017-08-17T10:22:20.755Z,34.00
2017-08-17T10:23:20.857Z,34.00
2017-08-17T10:24:20.788Z,34.00
2017-08-17T10:25:20.855Z,35.00
2017-08-17T10:26:20.798Z,35.00
2017-08-17T10:27:20.839Z,35.00
2017-08-17T10:28:20.752Z,35.00
2017-08-17T10:29:20.788Z,37.00
2017-08-17T10:30:20.802Z,36.00
2017-08-17T10:31:20.791Z,36.00
2017-08-17T10:32:20.757Z,35.00
2017-08-17T10:33:20.755Z,35.00
2017-08-17T10:34:20.784Z,35.00
2017-08-17T10:35:20.798Z,34.00
2017-08-17T10:36:20.756Z,34.00
2017-08-17T10:37:20.794Z,33.00
2017-08-17T10:38:20.876Z,34.00
2017-08-17T10:39:20.777Z,34.00
2017-08-17T10:40:20.799Z,33.00
2017-08-17T10:41:20.903Z,33.00
2017-08-17T10:42:20.779Z,34.00
2017-08-17T10:43:20.836Z,34.00
2017-08-17T10:44:20.780Z,34.00
2017-08-17T10:45:20.779Z,35.00
2017-08-17T10:46:20.838Z,35.00
2017-08-17T10:47:20.803Z,36.00
2017-08-17T10:48:20.770Z,37.00
2017-08-17T10:49:20.795Z,37.00
2017-08-17T10:50:20.834Z,37.00
2017-08-17T10:51:20.802Z,38.00
2017-08-17T10:52:20.757Z,37.00
2017-08-17T10:53:20.799Z,37.00
2017-08-17T10:54:20.775Z,37.00
2017-08-17T10:55:20.765Z,36.00
2017-08-17T10:56:20.797Z,36.00
2017-08-17T10:57:20.798Z,36.00
2017-08-17T10:58:20.821Z,35.00
2017-08-17T10:59:20.802Z,35.00
2017-08-17T11:00:20.784Z,35.00
2017-08-17T11:01:20.811Z,36.00
2017-08-17T11:02:20.782Z,36.00
2017-08-17T11:03:20.807Z,36.00
2017-08-17T11:04:20.859Z,38.00
2017-08-17T11:05:20.884Z,39.00
2017-08-17T11:06:20.880Z,39.00
2017-08-17T11:07:20.879Z,41.00
2017-08-17T11:08:20.851Z,41.00
2017-08-17T11:09:20.824Z,40.00
2017-08-17T11:10:20.846Z,38.00
2017-08-17T11:11:20.823Z,38.00
2017-08-17T11:12:20.830Z,39.00
2017-08-17T11:13:20.826Z,39.00
2017-08-17T11:14:20.859Z,39.00
2017-08-17T11:15:20.831Z,38.00
2017-08-17T11:16:20.887Z,37.00
2017-08-17T11:17:20.822Z,37.00
2017-08-17T11:18:20.811Z,31.00
2017-08-17T11:19:20.805Z,34.00
2017-08-17T11:20:20.817Z,32.00
2017-08-17T11:21:20.793Z,32.00
2017-08-17T11:22:20.817Z,32.00
2017-08-17T11:23:20.809Z,30.00
2017-08-17T11:24:20.691Z,29.00
2017-08-17T11:25:20.731Z,28.00
2017-08-17T11:26:20.739Z,28.00
2017-08-17T11:27:20.730Z,28.00
2017-08-17T11:28:20.674Z,28.00
2017-08-17T11:29:20.705Z,28.00
2017-08-17T11:30:20.681Z,28.00
2017-08-17T11:31:20.741Z,28.00
2017-08-17T11:32:20.699Z,28.00
2017-08-17T11:33:20.779Z,27.00
2017-08-17T11:34:20.875Z,27.00
2017-08-17T11:35:20.813Z,27.00
2017-08-17T11:36:20.808Z,27.00
2017-08-17T11:37:20.834Z,26.00
2017-08-17T11:38:20.858Z,26.00
2017-08-17T11:39:20.867Z,26.00
2017-08-17T11:40:20.832Z,25.00
2017-08-17T11:41:20.876Z,25.00
2017-08-17T11:42:20.804Z,25.00
2017-08-17T11:43:20.893Z,25.00
2017-08-17T11:44:20.843Z,25.00
2017-08-17T11:45:20.829Z,25.00
2017-08-17T11:46:20.901Z,25.00
2017-08-17T11:47:20.846Z,25.00
2017-08-17T11:48:20.844Z,25.00
2017-08-17T11:49:20.817Z,25.00
2017-08-17T11:50:20.877Z,25.00
2017-08-17T11:51:20.848Z,25.00
2017-08-17T11:52:20.844Z,25.00
2017-08-17T11:53:20.880Z,25.00
2017-08-17T11:54:20.873Z,25.00
2017-08-17T11:55:20.850Z,25.00
2017-08-17T11:56:20.868Z,26.00
2017-08-17T11:57:20.869Z,26.00
2017-08-17T11:58:20.874Z,26.00
2017-08-17T11:59:20.843Z,26.00
2017-08-17T12:00:20.842Z,26.00
2017-08-17T12:01:20.852Z,26.00
2017-08-17T12:02:20.843Z,25.00
2017-08-17T12:03:20.841Z,25.00
2017-08-17T12:04:20.880Z,24.00
2017-08-17T12:05:20.913Z,24.00
2017-08-17T12:06:20.912Z,23.00
2017-08-17T12:07:20.824Z,23.00
2017-08-17T12:08:20.826Z,23.00
2017-08-17T12:09:20.919Z,22.00
2017-08-17T12:10:20.825Z,22.00
2017-08-17T12:11:20.898Z,22.00
2017-08-17T12:12:20.826Z,22.00
2017-08-17T12:13:20.829Z,21.00
2017-08-17T12:14:20.854Z,21.00
2017-08-17T12:15:20.827Z,21.00
2017-08-17T12:16:20.927Z,21.00
2017-08-17T12:17:20.866Z,21.00
2017-08-17T12:18:20.857Z,20.00
2017-08-17T12:19:20.860Z,20.00
2017-08-17T12:20:20.854Z,20.00
2017-08-17T12:21:20.915Z,21.00
2017-08-17T12:22:20.864Z,20.00
2017-08-17T12:23:20.875Z,20.00
2017-08-17T12:24:20.861Z,21.00
2017-08-17T12:25:20.844Z,21.00
2017-08-17T12:26:20.830Z,21.00
2017-08-17T12:27:20.866Z,21.00
2017-08-17T12:28:20.808Z,21.00
2017-08-17T12:29:20.853Z,21.00
2017-08-17T12:30:20.857Z,21.00
2017-08-17T12:31:20.811Z,21.00
2017-08-17T12:32:20.830Z,21.00
2017-08-17T12:33:20.834Z,21.00
2017-08-17T12:34:20.911Z,22.00
2017-08-17T12:35:20.837Z,22.00
2017-08-17T12:36:20.840Z,22.00
2017-08-17T12:37:20.927Z,22.00
2017-08-17T12:38:20.840Z,23.00
2017-08-17T12:39:20.906Z,23.00
2017-08-17T12:40:20.913Z,23.00
2017-08-17T12:41:20.845Z,24.00
2017-08-17T12:42:20.912Z,24.00
2017-08-17T12:43:20.864Z,25.00
2017-08-17T12:44:20.843Z,26.00
2017-08-17T12:45:20.917Z,27.00
2017-08-17T12:46:20.844Z,27.00
2017-08-17T12:47:20.882Z,28.00
2017-08-17T12:48:20.854Z,29.00
2017-08-17T12:49:20.887Z,29.00
2017-08-17T12:50:20.914Z,29.00
2017-08-17T12:51:20.912Z,28.00
2017-08-17T12:52:20.883Z,28.00
2017-08-17T12:53:20.849Z,28.00
2017-08-17T12:54:20.875Z,28.00
2017-08-17T12:55:20.919Z,28.00
2017-08-17T12:56:20.886Z,28.00
2017-08-17T12:57:20.911Z,29.00
2017-08-17T12:58:20.855Z,31.00
2017-08-17T12:59:20.877Z,31.00
2017-08-17T13:00:20.853Z,33.00
2017-08-17T13:01:20.953Z,34.00
2017-08-17T13:02:20.882Z,35.00
2017-08-17T13:03:20.946Z,34.00
2017-08-17T13:04:20.895Z,34.00